createdAt,value
2023-04-30T00:02:35.205Z,8.17
2023-04-30T00:06:40.288Z,8.23
2023-04-30T00:10:43.614Z,8.37
2023-04-30T00:14:47.074Z,8.63
2023-04-30T00:18:51.657Z,8.60
2023-04-30T00:22:56.290Z,9.23
2023-04-30T00:26:59.681Z,7.20
2023-04-30T00:31:03.317Z,8.50
2023-04-30T00:35:07.795Z,7.67
2023-04-30T00:39:12.714Z,8.50
2023-04-30T00:43:16.148Z,8.57
2023-04-30T00:47:20.078Z,7.87
2023-04-30T00:51:25.123Z,8.27
2023-04-30T00:55:30.266Z,8.37
2023-04-30T00:59:34.489Z,8.37
2023-04-30T01:03:38.579Z,8.77
2023-04-30T01:07:46.312Z,9.07
2023-04-30T01:12:02.005Z,8.70
2023-04-30T01:16:14.126Z,9.10
2023-04-30T01:20:18.001Z,8.53
2023-04-30T01:24:43.512Z,8.60
2023-04-30T01:28:51.100Z,8.27
2023-04-30T01:32:54.569Z,7.97
2023-04-30T01:37:13.219Z,7.33
2023-04-30T01:41:30.395Z,7.80
2023-04-30T01:45:55.546Z,6.90
2023-04-30T01:50:12.541Z,7.27
2023-04-30T01:54:22.865Z,6.60
2023-04-30T01:58:27.443Z,6.60
2023-04-30T02:06:57.503Z,6.70
2023-04-30T02:11:05.648Z,8.00
2023-04-30T02:15:12.707Z,8.73
2023-04-30T02:19:18.594Z,8.40
2023-04-30T02:23:24.282Z,8.87
2023-04-30T02:27:29.898Z,9.20
2023-04-30T02:31:34.917Z,10.20
2023-04-30T02:35:38.808Z,9.20
2023-04-30T02:39:43.893Z,11.30
2023-04-30T02:43:48.664Z,12.03
2023-04-30T02:47:52.664Z,11.13
2023-04-30T02:51:56.956Z,10.17
2023-04-30T02:56:02.387Z,12.40
2023-04-30T03:00:08.880Z,10.60
2023-04-30T03:04:12.891Z,12.20
2023-04-30T03:08:16.825Z,11.90
2023-04-30T03:12:22.429Z,11.07
2023-04-30T03:16:26.400Z,10.97
2023-04-30T03:20:30.252Z,10.93
2023-04-30T03:24:34.034Z,10.77
2023-04-30T03:28:41.536Z,11.67
2023-04-30T03:32:45.298Z,13.87
2023-04-30T03:36:50.215Z,11.53
2023-04-30T03:40:53.970Z,11.93
2023-04-30T03:45:01.207Z,12.90
2023-04-30T03:49:05.004Z,12.03
2023-04-30T03:53:08.776Z,10.37
2023-04-30T03:57:14.830Z,13.03
2023-04-30T04:05:57.108Z,11.37
2023-04-30T04:10:01.139Z,10.73
2023-04-30T04:14:07.934Z,10.97
2023-04-30T04:18:11.390Z,11.87
2023-04-30T04:22:17.346Z,11.67
2023-04-30T04:26:25.822Z,9.83
2023-04-30T04:30:32.044Z,9.83
2023-04-30T04:34:35.602Z,9.07
2023-04-30T04:38:41.317Z,9.40
2023-04-30T04:42:44.750Z,9.27
2023-04-30T04:46:49.064Z,8.17
2023-04-30T04:50:52.827Z,9.07
2023-04-30T04:54:57.741Z,8.30
2023-04-30T04:59:01.279Z,8.37
2023-04-30T05:03:05.412Z,8.73
2023-04-30T05:07:09.338Z,8.33
2023-04-30T05:11:15.715Z,8.17
2023-04-30T05:15:20.153Z,10.00
2023-04-30T05:19:24.573Z,10.03
2023-04-30T05:23:28.536Z,11.07
2023-04-30T05:27:34.757Z,10.37
2023-04-30T05:31:39.217Z,9.23
2023-04-30T05:35:44.581Z,9.27
2023-04-30T05:39:48.307Z,12.03
2023-04-30T05:43:53.141Z,10.30
2023-04-30T05:47:59.490Z,10.57
2023-04-30T05:52:03.836Z,11.43
2023-04-30T05:56:09.119Z,10.30
2023-04-30T06:00:16.591Z,10.13
2023-04-30T06:04:20.331Z,12.33
2023-04-30T06:08:25.072Z,12.53
2023-04-30T06:12:29.321Z,12.73
2023-04-30T06:16:35.479Z,11.90
2023-04-30T06:20:39.649Z,11.97
2023-04-30T06:24:43.320Z,12.80
2023-04-30T06:28:46.927Z,12.17
2023-04-30T06:32:52.843Z,12.57
2023-04-30T06:36:56.874Z,11.97
2023-04-30T06:41:00.808Z,12.10
2023-04-30T06:45:06.761Z,11.23
2023-04-30T06:49:13.486Z,13.13
2023-04-30T06:53:17.534Z,14.73
2023-04-30T06:57:21.667Z,13.23
2023-04-30T07:01:25.422Z,13.27
2023-04-30T07:05:30.752Z,13.40
2023-04-30T07:09:34.402Z,12.60
2023-04-30T07:13:38.900Z,12.10
2023-04-30T07:17:42.608Z,12.13
2023-04-30T07:21:47.506Z,12.77
2023-04-30T07:25:51.430Z,11.27
2023-04-30T07:29:55.993Z,13.40
2023-04-30T07:34:00.858Z,14.30
2023-04-30T07:38:07.350Z,12.93
2023-04-30T07:42:11.487Z,10.77
2023-04-30T07:46:15.769Z,12.83
2023-04-30T07:50:20.556Z,12.13
2023-04-30T07:54:25.604Z,11.13
2023-04-30T07:58:29.254Z,11.27
2023-04-30T08:02:33.606Z,11.00
2023-04-30T08:06:39.086Z,11.57
2023-04-30T08:10:44.292Z,12.47
2023-04-30T08:14:47.964Z,10.30
2023-04-30T08:18:51.760Z,10.97
2023-04-30T08:22:57.265Z,10.47
2023-04-30T08:27:04.183Z,9.33
2023-04-30T08:31:08.414Z,10.60
2023-04-30T08:35:13.834Z,9.77
2023-04-30T08:39:18.534Z,10.37
2023-04-30T08:43:23.919Z,10.50
2023-04-30T08:47:28.018Z,9.73
2023-04-30T08:51:33.500Z,9.00
2023-04-30T08:55:38.026Z,8.20
2023-04-30T08:59:47.718Z,7.93
2023-04-30T09:03:51.754Z,7.03
2023-04-30T09:08:02.958Z,7.53
2023-04-30T09:12:19.408Z,5.73
2023-04-30T09:16:26.637Z,6.30
2023-04-30T09:20:31.307Z,6.47
2023-04-30T09:24:47.776Z,6.10
2023-04-30T09:29:00.520Z,6.30
2023-04-30T09:33:08.566Z,6.90
2023-04-30T09:37:14.314Z,8.03
2023-04-30T09:41:27.666Z,6.40
2023-04-30T09:45:41.580Z,5.60
2023-04-30T09:49:52.182Z,6.40
2023-04-30T09:53:57.714Z,6.17
2023-04-30T09:58:02.015Z,6.23
2023-04-30T10:02:07.190Z,6.80
2023-04-30T10:06:16.280Z,6.27
2023-04-30T10:10:23.405Z,6.20
2023-04-30T10:14:31.182Z,6.17
2023-04-30T10:18:36.923Z,5.70
2023-04-30T10:22:43.920Z,5.83
2023-04-30T10:26:52.386Z,5.97
2023-04-30T10:31:00.381Z,5.70
2023-04-30T10:35:14.180Z,5.47
2023-04-30T10:39:20.581Z,5.50
2023-04-30T10:43:26.364Z,6.07
2023-04-30T10:47:31.798Z,5.80
2023-04-30T10:51:49.845Z,5.50
2023-04-30T10:55:59.864Z,5.47
2023-04-30T11:00:26.359Z,4.80
2023-04-30T11:04:31.026Z,5.00
2023-04-30T11:08:35.982Z,10.63
2023-04-30T11:12:43.615Z,8.83
2023-04-30T11:16:50.784Z,5.53
2023-04-30T11:20:54.914Z,4.20
2023-04-30T11:25:07.991Z,3.67
2023-04-30T11:29:13.722Z,3.43
2023-04-30T11:33:18.314Z,2.37
2023-04-30T11:37:26.212Z,2.50
2023-04-30T11:41:29.796Z,2.20
2023-04-30T11:45:35.931Z,2.10
2023-04-30T11:49:40.080Z,2.53
2023-04-30T11:53:43.771Z,2.10
2023-04-30T11:57:48.947Z,1.97
2023-04-30T12:02:03.953Z,1.67
2023-04-30T12:06:31.833Z,1.77
2023-04-30T12:10:57.521Z,2.30
2023-04-30T12:15:14.374Z,1.80
2023-04-30T12:19:21.391Z,1.80
2023-04-30T12:23:29.145Z,1.77
2023-04-30T12:27:35.903Z,1.60
2023-04-30T12:31:41.530Z,1.93
2023-04-30T12:35:55.835Z,1.30
2023-04-30T12:44:45.960Z,2.20
2023-04-30T12:48:49.437Z,1.50
2023-04-30T12:52:55.570Z,2.03
2023-04-30T12:57:04.957Z,2.17
2023-04-30T13:01:13.974Z,1.50
2023-04-30T13:05:18.209Z,1.60
2023-04-30T13:09:24.239Z,2.50
2023-04-30T13:13:27.777Z,2.17
2023-04-30T13:17:31.538Z,1.97
2023-04-30T13:21:35.086Z,1.83
2023-04-30T13:25:42.016Z,1.67
2023-04-30T13:29:45.580Z,2.40
2023-04-30T13:33:49.263Z,1.80
2023-04-30T13:37:53.734Z,2.00
2023-04-30T13:41:58.603Z,1.70
2023-04-30T13:46:03.341Z,1.97
2023-04-30T13:50:08.501Z,1.73
2023-04-30T13:54:12.313Z,1.93
2023-04-30T13:58:17.759Z,1.80
2023-04-30T14:02:21.324Z,2.07
2023-04-30T14:06:25.102Z,2.10
2023-04-30T14:10:28.593Z,1.93
2023-04-30T14:14:33.665Z,2.20
2023-04-30T14:18:37.358Z,2.27
2023-04-30T14:22:41.692Z,2.30
2023-04-30T14:26:45.751Z,2.60
2023-04-30T14:30:51.167Z,2.20
2023-04-30T14:34:54.689Z,2.80
2023-04-30T14:38:58.619Z,6.17
2023-04-30T14:43:02.009Z,11.03
2023-04-30T14:47:07.152Z,4.63
2023-04-30T14:51:10.656Z,2.40
2023-04-30T14:55:14.339Z,1.83
2023-04-30T14:59:17.827Z,2.03
2023-04-30T15:03:22.949Z,1.27
2023-04-30T15:07:26.711Z,2.00
2023-04-30T15:11:30.602Z,1.63
2023-04-30T15:15:34.063Z,2.00
2023-04-30T15:19:44.190Z,2.00
2023-04-30T15:23:51.104Z,2.00
2023-04-30T15:27:54.625Z,1.83
2023-04-30T15:31:59.800Z,1.43
2023-04-30T15:36:07.354Z,1.77
2023-04-30T15:40:15.432Z,2.07
2023-04-30T15:44:19.256Z,2.40
2023-04-30T15:48:22.665Z,2.30
2023-04-30T15:52:28.087Z,2.27
2023-04-30T15:56:32.273Z,2.10
2023-04-30T16:00:35.751Z,2.17
2023-04-30T16:04:39.232Z,2.23
2023-04-30T16:08:45.291Z,3.57
2023-04-30T16:12:48.939Z,2.03
2023-04-30T16:16:52.504Z,2.00
2023-04-30T16:20:57.891Z,1.93
2023-04-30T16:25:03.233Z,2.43
2023-04-30T16:29:07.722Z,2.37
2023-04-30T16:33:11.433Z,1.83
2023-04-30T16:37:15.760Z,2.17
2023-04-30T16:41:21.552Z,1.40
2023-04-30T16:45:25.208Z,1.43
2023-04-30T16:49:28.555Z,1.47
2023-04-30T16:53:32.186Z,1.93
2023-04-30T16:57:37.145Z,1.80
2023-04-30T17:01:40.648Z,1.70
2023-04-30T17:05:44.185Z,1.77
2023-04-30T17:09:47.889Z,1.50
2023-04-30T17:13:54.738Z,1.30
2023-04-30T17:17:58.247Z,1.67
2023-04-30T17:22:02.050Z,1.67
2023-04-30T17:26:05.788Z,1.60
2023-04-30T17:30:11.421Z,1.67
2023-04-30T17:34:14.916Z,1.80
2023-04-30T17:38:18.527Z,1.70
2023-04-30T17:42:21.905Z,2.10
2023-04-30T17:46:26.959Z,1.97
2023-04-30T17:50:30.650Z,2.07
2023-04-30T17:54:35.042Z,1.80
2023-04-30T17:58:40.101Z,2.37
2023-04-30T18:02:46.240Z,1.63
2023-04-30T18:06:50.110Z,1.50
2023-04-30T18:10:54.866Z,2.03
2023-04-30T18:14:59.515Z,1.90
2023-04-30T18:19:05.258Z,1.67
2023-04-30T18:23:10.492Z,2.10
2023-04-30T18:27:14.140Z,2.43
2023-04-30T18:31:17.761Z,1.23
2023-04-30T18:35:24.992Z,2.30
2023-04-30T18:39:31.387Z,1.87
2023-04-30T18:43:37.169Z,2.20
2023-04-30T18:47:51.786Z,2.40
2023-04-30T18:52:12.693Z,2.37
2023-04-30T18:56:18.948Z,1.90
2023-04-30T19:00:24.586Z,2.97
2023-04-30T19:04:31.992Z,2.73
2023-04-30T19:08:48.074Z,2.20
2023-04-30T19:13:06.008Z,2.40
2023-04-30T19:17:20.181Z,2.50
2023-04-30T19:21:31.072Z,2.23
2023-04-30T19:25:36.313Z,2.20
2023-04-30T19:29:49.043Z,1.90
2023-04-30T19:34:10.204Z,2.90
2023-04-30T19:38:29.166Z,2.43
2023-04-30T19:42:56.171Z,2.07
2023-04-30T19:47:02.361Z,2.40
2023-04-30T19:51:23.332Z,2.23
2023-04-30T19:55:44.229Z,2.30
2023-04-30T20:00:19.187Z,2.17
2023-04-30T20:04:29.312Z,2.13
2023-04-30T20:08:32.754Z,2.83
2023-04-30T20:12:42.029Z,2.23
2023-04-30T20:16:56.021Z,2.87
2023-04-30T20:21:09.516Z,2.53
2023-04-30T20:25:22.197Z,3.33
2023-04-30T20:29:34.761Z,2.73
2023-04-30T20:33:48.255Z,3.00
2023-04-30T20:38:00.621Z,3.37
2023-04-30T20:42:09.393Z,3.83
2023-04-30T20:46:19.275Z,3.40
2023-04-30T20:50:29.226Z,3.17
2023-04-30T20:54:44.663Z,4.40
2023-04-30T20:58:56.495Z,3.77
2023-04-30T21:03:04.861Z,4.67
2023-04-30T21:07:10.477Z,4.00
2023-04-30T21:11:14.766Z,4.77
2023-04-30T21:15:18.321Z,4.67
2023-04-30T21:19:21.781Z,5.93
2023-04-30T21:23:26.929Z,6.33
2023-04-30T21:27:30.397Z,7.13
2023-04-30T21:31:33.998Z,6.90
2023-04-30T21:35:37.720Z,7.40
2023-04-30T21:39:43.071Z,7.63
2023-04-30T21:43:46.438Z,7.63
2023-04-30T21:47:50.212Z,8.20
2023-04-30T21:51:53.692Z,7.57
2023-04-30T21:55:58.499Z,8.23
2023-04-30T22:00:02.203Z,7.03
2023-04-30T22:04:06.282Z,7.77
2023-04-30T22:08:11.053Z,6.40
2023-04-30T22:12:15.845Z,6.83
2023-04-30T22:16:19.450Z,6.97
2023-04-30T22:20:22.896Z,6.23
2023-04-30T22:24:27.008Z,6.13
2023-04-30T22:28:32.130Z,6.40
2023-04-30T22:32:35.802Z,5.80
2023-04-30T22:36:39.331Z,6.10
2023-04-30T22:40:43.322Z,5.70
2023-04-30T22:44:49.022Z,5.93
2023-04-30T22:48:52.577Z,6.13
2023-04-30T22:52:56.447Z,5.63
2023-04-30T22:57:00.105Z,5.83
2023-04-30T23:01:05.010Z,5.97
2023-04-30T23:05:09.302Z,5.53
2023-04-30T23:09:15.684Z,4.63
2023-04-30T23:13:19.635Z,5.43
2023-04-30T23:17:24.936Z,5.07
2023-04-30T23:21:28.673Z,5.20
2023-04-30T23:25:34.226Z,5.00
2023-04-30T23:29:38.946Z,5.73
2023-04-30T23:33:43.928Z,6.43
2023-04-30T23:37:48.538Z,4.97
2023-04-30T23:41:52.641Z,4.53
2023-04-30T23:45:56.685Z,4.50
2023-04-30T23:50:01.834Z,3.80
2023-04-30T23:54:06.108Z,4.17
2023-04-30T23:58:10.025Z,4.70
